Time;durP1;ratioP1;P1;durP2;ratioP2;P2;SDS_P1;SDS_P2;PMS_P1;PMS_P2;Temp;Humidity;BMP_temperature;BMP_pressure;BME280_temperature;BME280_humidity;BME280_pressure;Samples;Min_cycle;Max_cycle;Signal;HPM_P1;HPM_P2
2023/06/17 00:01:14;;;;;;;7.83;5.70;;;;;;;;;;5070802;28;20213;-61
2023/06/17 00:03:42;;;;;;;6.23;5.63;;;;;;;;;;5068429;28;20709;-62
2023/06/17 00:06:10;;;;;;;7.60;5.80;;;;;;;;;;5070854;28;20718;-63
2023/06/17 00:08:38;;;;;;;8.10;5.70;;;;;;;;;;5067307;28;20460;-63
2023/06/17 00:11:05;;;;;;;6.20;5.60;;;;;;;;;;5058756;28;20583;-64
2023/06/17 00:13:32;;;;;;;9.30;5.67;;;;;;;;;;5055063;28;20233;-63
2023/06/17 00:16:00;;;;;;;6.20;5.47;;;;;;;;;;5051180;28;20217;-61
2023/06/17 00:18:28;;;;;;;6.17;5.57;;;;;;;;;;5047268;28;20248;-63
2023/06/17 00:20:57;;;;;;;7.30;5.30;;;;;;;;;;5064508;28;20581;-63
2023/06/17 00:23:25;;;;;;;7.47;5.47;;;;;;;;;;5059695;28;20243;-64
2023/06/17 00:25:52;;;;;;;7.83;5.30;;;;;;;;;;5066444;28;20213;-63
2023/06/17 00:28:20;;;;;;;6.70;5.30;;;;;;;;;;5065235;28;20225;-63
2023/06/17 00:30:47;;;;;;;6.13;5.60;;;;;;;;;;5063686;28;20666;-63
2023/06/17 00:33:15;;;;;;;7.40;5.90;;;;;;;;;;5067592;28;20694;-63
2023/06/17 00:35:42;;;;;;;6.43;5.50;;;;;;;;;;5071547;28;20659;-63
2023/06/17 00:38:10;;;;;;;6.20;5.57;;;;;;;;;;5061711;28;20214;-64
2023/06/17 00:40:37;;;;;;;6.13;5.10;;;;;;;;;;5043796;28;20720;-63
2023/06/17 00:43:05;;;;;;;7.30;5.53;;;;;;;;;;5065647;28;20318;-63
2023/06/17 00:45:38;;;;;;;8.57;5.77;;;;;;;;;;5069807;28;20484;-63
2023/06/17 00:48:09;;;;;;;5.77;5.13;;;;;;;;;;5068173;28;20205;-63
2023/06/17 00:50:37;;;;;;;10.57;5.67;;;;;;;;;;5059872;28;20210;-63
2023/06/17 00:53:05;;;;;;;6.27;5.67;;;;;;;;;;5070981;28;20235;-63
2023/06/17 00:55:33;;;;;;;6.10;5.60;;;;;;;;;;5049362;28;20210;-63
2023/06/17 00:58:01;;;;;;;5.77;5.27;;;;;;;;;;5072897;28;20202;-62
2023/06/17 01:00:28;;;;;;;6.93;5.80;;;;;;;;;;5073347;28;20211;-61
2023/06/17 01:02:56;;;;;;;6.33;5.73;;;;;;;;;;5065433;28;20306;-61
2023/06/17 01:05:25;;;;;;;5.70;5.10;;;;;;;;;;5063692;28;20228;-63
2023/06/17 01:07:52;;;;;;;6.47;5.83;;;;;;;;;;5064090;28;20209;-62
2023/06/17 01:10:38;;;;;;;6.07;5.27;;;;;;;;;;5063574;28;20608;-61
2023/06/17 01:13:06;;;;;;;6.03;5.33;;;;;;;;;;5065363;28;20216;-62
2023/06/17 01:15:34;;;;;;;9.20;6.17;;;;;;;;;;5067278;28;20201;-61
2023/06/17 01:18:07;;;;;;;6.30;5.50;;;;;;;;;;5044649;28;20237;-63
2023/06/17 01:20:35;;;;;;;5.77;5.27;;;;;;;;;;5068533;28;20197;-63
2023/06/17 01:23:05;;;;;;;5.30;4.73;;;;;;;;;;5056006;28;20234;-63
2023/06/17 01:25:34;;;;;;;6.60;5.10;;;;;;;;;;5057562;28;20258;-63
2023/06/17 01:28:20;;;;;;;7.03;5.60;;;;;;;;;;5058845;28;20209;-63
2023/06/17 01:30:48;;;;;;;7.20;5.90;;;;;;;;;;5062623;28;20247;-63
2023/06/17 01:33:16;;;;;;;6.70;5.37;;;;;;;;;;5051022;28;20217;-63
2023/06/17 01:35:59;;;;;;;6.37;5.77;;;;;;;;;;5047980;28;20206;-63
2023/06/17 01:38:41;;;;;;;6.87;5.30;;;;;;;;;;5043013;28;20791;-63
2023/06/17 01:41:16;;;;;;;6.03;5.27;;;;;;;;;;5045882;28;20202;-62
2023/06/17 01:43:44;;;;;;;6.10;5.50;;;;;;;;;;5058230;28;20244;-63
2023/06/17 01:46:13;;;;;;;6.97;5.80;;;;;;;;;;5060946;28;20438;-64
2023/06/17 01:48:41;;;;;;;7.27;5.90;;;;;;;;;;5058920;28;20202;-63
2023/06/17 01:51:08;;;;;;;6.17;5.57;;;;;;;;;;5054309;28;20621;-63
2023/06/17 01:53:36;;;;;;;6.20;5.60;;;;;;;;;;5064307;28;20220;-64
2023/06/17 01:56:03;;;;;;;7.57;5.60;;;;;;;;;;5060640;28;20205;-63
2023/06/17 01:58:30;;;;;;;5.87;5.27;;;;;;;;;;5059041;28;20213;-63
2023/06/17 02:00:58;;;;;;;7.20;5.73;;;;;;;;;;5051452;28;20225;-63
2023/06/17 02:03:26;;;;;;;5.83;5.27;;;;;;;;;;5055912;28;20723;-63
2023/06/17 02:05:54;;;;;;;5.73;5.10;;;;;;;;;;5056817;28;20240;-63
2023/06/17 02:08:22;;;;;;;6.27;5.67;;;;;;;;;;5056373;28;20193;-63
2023/06/17 02:10:50;;;;;;;10.03;5.57;;;;;;;;;;5046947;28;20276;-63
2023/06/17 02:13:17;;;;;;;6.13;5.53;;;;;;;;;;5054948;28;20222;-63
2023/06/17 02:15:45;;;;;;;6.40;5.80;;;;;;;;;;5052279;28;20224;-63
2023/06/17 02:18:14;;;;;;;5.37;4.93;;;;;;;;;;5064650;28;20214;-63
2023/06/17 02:20:41;;;;;;;5.90;5.30;;;;;;;;;;5059461;28;20239;-63
2023/06/17 02:23:08;;;;;;;6.00;5.40;;;;;;;;;;5054114;28;20230;-63
2023/06/17 02:25:39;;;;;;;6.20;5.17;;;;;;;;;;5055180;28;20217;-62
2023/06/17 02:28:07;;;;;;;7.20;5.30;;;;;;;;;;5038371;28;20573;-63
2023/06/17 02:30:34;;;;;;;7.00;5.53;;;;;;;;;;5065572;28;20606;-64
2023/06/17 02:33:01;;;;;;;5.93;5.40;;;;;;;;;;5070357;28;20682;-63
2023/06/17 02:35:29;;;;;;;5.83;5.20;;;;;;;;;;5072984;28;20229;-63
2023/06/17 02:37:56;;;;;;;6.27;5.67;;;;;;;;;;5070586;28;20569;-63
2023/06/17 02:40:24;;;;;;;6.47;5.57;;;;;;;;;;5064271;28;20205;-61
2023/06/17 02:42:51;;;;;;;9.03;6.40;;;;;;;;;;5053532;28;20234;-62
2023/06/17 02:45:18;;;;;;;8.60;5.37;;;;;;;;;;5058151;28;20217;-62
2023/06/17 02:47:45;;;;;;;7.03;5.73;;;;;;;;;;5056133;28;20212;-61
2023/06/17 02:50:14;;;;;;;8.27;5.57;;;;;;;;;;5043705;28;20212;-61
2023/06/17 02:52:41;;;;;;;6.17;5.57;;;;;;;;;;5051642;28;20283;-62
2023/06/17 02:55:09;;;;;;;6.43;5.63;;;;;;;;;;5042339;28;20312;-62
2023/06/17 02:57:36;;;;;;;6.33;5.70;;;;;;;;;;5055306;28;20210;-63
2023/06/17 03:00:08;;;;;;;7.50;5.60;;;;;;;;;;5061285;28;20213;-62
2023/06/17 03:02:36;;;;;;;7.10;5.40;;;;;;;;;;5058595;28;20222;-62
2023/06/17 03:05:06;;;;;;;6.50;5.80;;;;;;;;;;5061037;28;20214;-62
2023/06/17 03:07:36;;;;;;;6.77;6.07;;;;;;;;;;5060698;28;20213;-62
2023/06/17 03:10:03;;;;;;;6.77;5.77;;;;;;;;;;5055371;28;20298;-61
2023/06/17 03:12:31;;;;;;;6.53;5.83;;;;;;;;;;5051299;28;20607;-62
2023/06/17 03:14:59;;;;;;;7.10;6.40;;;;;;;;;;5062895;28;20197;-61
2023/06/17 03:17:27;;;;;;;6.90;5.60;;;;;;;;;;5047099;28;20202;-62
2023/06/17 03:19:56;;;;;;;8.60;6.10;;;;;;;;;;5052288;28;20903;-63
2023/06/17 03:22:24;;;;;;;6.40;5.73;;;;;;;;;;5051360;28;20649;-62
2023/06/17 03:24:51;;;;;;;8.67;6.33;;;;;;;;;;5037117;28;20693;-66
2023/06/17 03:27:19;;;;;;;6.80;6.10;;;;;;;;;;5052948;28;20225;-62
2023/06/17 03:29:48;;;;;;;7.50;5.70;;;;;;;;;;5052045;28;20194;-61
2023/06/17 03:32:16;;;;;;;6.80;6.17;;;;;;;;;;5058496;28;20381;-61
2023/06/17 03:34:43;;;;;;;8.80;5.53;;;;;;;;;;5055592;28;21378;-61
2023/06/17 03:37:11;;;;;;;7.40;5.80;;;;;;;;;;5053212;28;20255;-61
2023/06/17 03:39:38;;;;;;;8.03;5.90;;;;;;;;;;5055311;28;20262;-61
2023/06/17 03:42:08;;;;;;;7.47;5.93;;;;;;;;;;5056707;28;20393;-63
2023/06/17 03:44:35;;;;;;;7.53;6.20;;;;;;;;;;5058828;28;20206;-63
2023/06/17 03:47:02;;;;;;;7.00;5.90;;;;;;;;;;5059343;28;20236;-62
2023/06/17 03:49:30;;;;;;;6.83;5.70;;;;;;;;;;5050168;28;20197;-61
2023/06/17 03:51:57;;;;;;;6.83;6.13;;;;;;;;;;5050980;28;20218;-63
2023/06/17 03:54:24;;;;;;;7.57;6.10;;;;;;;;;;5050210;28;20294;-61
2023/06/17 03:56:52;;;;;;;7.07;6.37;;;;;;;;;;5052978;28;20210;-61
2023/06/17 03:59:19;;;;;;;7.80;6.40;;;;;;;;;;5059319;28;20739;-63
2023/06/17 04:01:46;;;;;;;7.93;6.27;;;;;;;;;;5076622;28;20740;-63
2023/06/17 04:04:14;;;;;;;6.70;6.00;;;;;;;;;;5062661;28;20206;-63
2023/06/17 04:06:41;;;;;;;6.87;6.23;;;;;;;;;;5068215;28;20263;-64
2023/06/17 04:09:08;;;;;;;7.50;6.03;;;;;;;;;;5066872;28;20234;-62
2023/06/17 04:11:36;;;;;;;9.27;6.43;;;;;;;;;;5058337;28;20230;-63
2023/06/17 04:14:03;;;;;;;7.20;6.50;;;;;;;;;;5051555;28;20982;-63
2023/06/17 04:16:35;;;;;;;7.30;6.57;;;;;;;;;;5053456;28;20436;-63
2023/06/17 04:19:03;;;;;;;9.30;6.27;;;;;;;;;;5054027;28;20198;-62
2023/06/17 04:21:30;;;;;;;6.63;6.03;;;;;;;;;;5053910;28;20231;-62
2023/06/17 04:23:57;;;;;;;6.37;5.77;;;;;;;;;;5065443;28;20209;-61
2023/06/17 04:26:25;;;;;;;6.50;5.67;;;;;;;;;;5062164;28;20578;-63
2023/06/17 04:28:53;;;;;;;7.63;6.30;;;;;;;;;;5062508;28;20201;-63
2023/06/17 04:31:20;;;;;;;7.47;6.53;;;;;;;;;;5058448;28;20202;-63
2023/06/17 04:33:49;;;;;;;7.23;6.53;;;;;;;;;;5026689;28;20198;-63
2023/06/17 04:36:17;;;;;;;8.83;6.97;;;;;;;;;;5060432;28;20605;-61
2023/06/17 04:38:47;;;;;;;7.27;6.57;;;;;;;;;;5067701;28;20201;-62
2023/06/17 04:41:15;;;;;;;7.03;6.07;;;;;;;;;;5051299;28;20628;-61
2023/06/17 04:43:48;;;;;;;7.30;6.67;;;;;;;;;;5065908;28;20299;-61
2023/06/17 04:46:20;;;;;;;9.83;7.00;;;;;;;;;;5068091;28;20245;-61
2023/06/17 04:48:48;;;;;;;6.87;6.17;;;;;;;;;;5036255;28;20202;-61
2023/06/17 04:51:17;;;;;;;6.27;5.67;;;;;;;;;;5070334;28;20201;-63
2023/06/17 04:53:45;;;;;;;8.13;6.43;;;;;;;;;;5066465;28;20574;-62
2023/06/17 04:56:12;;;;;;;7.70;7.00;;;;;;;;;;5063833;28;20202;-62
2023/06/17 04:58:39;;;;;;;7.30;6.60;;;;;;;;;;5066911;28;20232;-59
2023/06/17 05:01:09;;;;;;;7.33;6.33;;;;;;;;;;5063884;28;20205;-62
2023/06/17 05:03:37;;;;;;;7.10;6.20;;;;;;;;;;5065050;28;20304;-60
2023/06/17 05:06:04;;;;;;;7.80;6.90;;;;;;;;;;5068328;28;20264;-62
2023/06/17 05:08:31;;;;;;;7.90;6.97;;;;;;;;;;5055525;28;20213;-62
2023/06/17 05:10:58;;;;;;;8.80;6.80;;;;;;;;;;5071853;28;20252;-61
2023/06/17 05:13:26;;;;;;;6.97;6.30;;;;;;;;;;5068912;28;20217;-65
2023/06/17 05:15:53;;;;;;;7.43;6.47;;;;;;;;;;5070050;28;20284;-61
2023/06/17 05:18:20;;;;;;;9.77;8.77;;;;;;;;;;5064784;28;20248;-61
2023/06/17 05:20:48;;;;;;;11.23;8.77;;;;;;;;;;5068680;28;20819;-63
2023/06/17 05:23:15;;;;;;;8.90;8.00;;;;;;;;;;5070000;28;20290;-62
2023/06/17 05:25:42;;;;;;;8.38;6.72;;;;;;;;;;5076342;28;20276;-64
2023/06/17 05:28:10;;;;;;;9.40;7.07;;;;;;;;;;5064616;28;20355;-61
2023/06/17 05:30:39;;;;;;;7.57;6.78;;;;;;;;;;5069513;28;20216;-60
2023/06/17 05:33:07;;;;;;;6.57;5.93;;;;;;;;;;5068905;28;20626;-61
2023/06/17 05:35:35;;;;;;;9.02;6.95;;;;;;;;;;5050670;28;20205;-65
2023/06/17 05:38:02;;;;;;;8.10;7.30;;;;;;;;;;5064229;28;20659;-62
2023/06/17 05:40:29;;;;;;;7.95;7.15;;;;;;;;;;5070235;28;20205;-62
2023/06/17 05:42:57;;;;;;;7.22;6.53;;;;;;;;;;5065396;28;20686;-66
2023/06/17 05:45:24;;;;;;;11.30;6.82;;;;;;;;;;5072530;28;20205;-64
2023/06/17 05:47:52;;;;;;;7.45;5.72;;;;;;;;;;5063996;28;20740;-62
2023/06/17 05:50:20;;;;;;;5.82;5.07;;;;;;;;;;5061884;28;20194;-65
2023/06/17 05:52:48;;;;;;;5.43;4.82;;;;;;;;;;5048876;28;20306;-60
2023/06/17 05:55:15;;;;;;;5.70;5.07;;;;;;;;;;5062120;28;20767;-63
2023/06/17 05:57:43;;;;;;;5.13;4.47;;;;;;;;;;5062566;28;20209;-64
2023/06/17 06:00:12;;;;;;;6.45;4.60;;;;;;;;;;5063517;28;20677;-63
2023/06/17 06:02:40;;;;;;;5.45;4.55;;;;;;;;;;5066552;28;20222;-65
2023/06/17 06:05:07;;;;;;;7.32;4.40;;;;;;;;;;5069008;28;20200;-64
2023/06/17 06:07:35;;;;;;;6.78;4.18;;;;;;;;;;5068560;28;20612;-61
2023/06/17 06:10:03;;;;;;;4.55;4.15;;;;;;;;;;5067125;28;20195;-65
2023/06/17 06:12:30;;;;;;;4.63;4.10;;;;;;;;;;5067635;28;20220;-63
2023/06/17 06:14:58;;;;;;;4.55;4.10;;;;;;;;;;5073725;28;20198;-63
2023/06/17 06:17:25;;;;;;;5.80;4.25;;;;;;;;;;5066717;28;20213;-62
2023/06/17 06:19:53;;;;;;;7.63;4.47;;;;;;;;;;5072482;28;20287;-64
2023/06/17 06:22:20;;;;;;;5.80;3.75;;;;;;;;;;5058137;28;20229;-67
2023/06/17 06:24:47;;;;;;;7.57;4.75;;;;;;;;;;5061787;28;20287;-61
2023/06/17 06:27:15;;;;;;;5.85;4.22;;;;;;;;;;5059039;28;20229;-63
2023/06/17 06:29:42;;;;;;;6.18;5.00;;;;;;;;;;5052533;28;20292;-62
2023/06/17 06:32:10;;;;;;;5.25;4.47;;;;;;;;;;5053718;28;20226;-64
2023/06/17 06:34:37;;;;;;;5.43;4.57;;;;;;;;;;5062482;28;20655;-61
2023/06/17 06:37:04;;;;;;;6.30;4.47;;;;;;;;;;5061742;28;20263;-62
2023/06/17 06:39:34;;;;;;;5.15;4.65;;;;;;;;;;5060239;28;20205;-65
2023/06/17 06:42:01;;;;;;;7.78;4.55;;;;;;;;;;5045904;28;20729;-61
2023/06/17 06:44:29;;;;;;;9.00;4.78;;;;;;;;;;5061636;28;20263;-60
2023/06/17 06:46:56;;;;;;;10.07;5.00;;;;;;;;;;5059308;28;20228;-62
2023/06/17 06:49:24;;;;;;;4.97;4.45;;;;;;;;;;5070826;28;20267;-61
2023/06/17 06:51:51;;;;;;;7.18;4.40;;;;;;;;;;5069738;28;20217;-61
2023/06/17 06:54:18;;;;;;;5.25;4.30;;;;;;;;;;5067898;28;20201;-66
2023/06/17 06:56:45;;;;;;;6.88;4.70;;;;;;;;;;5051956;28;20212;-60
2023/06/17 06:59:13;;;;;;;6.10;5.40;;;;;;;;;;5066988;28;20205;-63
2023/06/17 07:01:40;;;;;;;5.78;4.57;;;;;;;;;;5074997;28;20229;-61
2023/06/17 07:04:07;;;;;;;6.35;4.20;;;;;;;;;;5067976;28;20212;-65
2023/06/17 07:06:35;;;;;;;6.32;4.47;;;;;;;;;;5048855;28;20474;-61
2023/06/17 07:09:02;;;;;;;6.07;4.82;;;;;;;;;;5066382;28;20205;-60
2023/06/17 07:11:29;;;;;;;7.85;4.85;;;;;;;;;;5057679;28;20244;-64
2023/06/17 07:13:57;;;;;;;5.03;4.35;;;;;;;;;;5052628;28;20193;-60
2023/06/17 07:16:24;;;;;;;5.85;5.00;;;;;;;;;;5057266;28;20220;-64
2023/06/17 07:18:52;;;;;;;4.78;4.22;;;;;;;;;;5059592;28;20736;-64
2023/06/17 07:21:19;;;;;;;4.90;4.50;;;;;;;;;;5054717;28;20209;-68
2023/06/17 07:23:46;;;;;;;5.95;4.53;;;;;;;;;;5057855;28;20215;-63
2023/06/17 07:26:14;;;;;;;5.90;4.65;;;;;;;;;;5062820;28;20212;-61
2023/06/17 07:28:41;;;;;;;6.55;4.78;;;;;;;;;;5059610;28;20216;-61
2023/06/17 07:31:09;;;;;;;5.60;4.80;;;;;;;;;;5056336;28;20202;-63
2023/06/17 07:33:36;;;;;;;6.43;4.75;;;;;;;;;;5049011;28;20230;-63
2023/06/17 07:36:04;;;;;;;5.50;4.75;;;;;;;;;;5052845;28;20612;-68
2023/06/17 07:38:35;;;;;;;10.38;4.50;;;;;;;;;;5049425;28;20201;-65
2023/06/17 07:41:02;;;;;;;6.05;4.78;;;;;;;;;;5047329;28;20204;-61
2023/06/17 07:43:31;;;;;;;5.07;4.40;;;;;;;;;;5045935;28;20569;-64
2023/06/17 07:45:58;;;;;;;5.60;5.07;;;;;;;;;;5040722;28;20194;-62
2023/06/17 07:48:26;;;;;;;7.18;4.63;;;;;;;;;;5043753;28;20226;-67
2023/06/17 07:50:54;;;;;;;5.18;4.22;;;;;;;;;;5040925;28;20233;-65
2023/06/17 07:53:23;;;;;;;5.63;4.88;;;;;;;;;;5044377;28;20262;-65
2023/06/17 07:55:52;;;;;;;5.28;4.30;;;;;;;;;;5046158;28;20292;-67
2023/06/17 07:58:20;;;;;;;4.82;4.32;;;;;;;;;;5049605;28;20308;-67
2023/06/17 08:00:47;;;;;;;5.38;4.53;;;;;;;;;;5051750;28;20247;-65
2023/06/17 08:03:15;;;;;;;6.50;4.50;;;;;;;;;;5053463;28;20229;-62
2023/06/17 08:05:42;;;;;;;5.78;4.95;;;;;;;;;;5062068;28;20245;-68
2023/06/17 08:08:10;;;;;;;5.28;4.78;;;;;;;;;;5062167;28;20242;-64
2023/06/17 08:10:37;;;;;;;5.90;5.25;;;;;;;;;;5064063;28;20209;-65
2023/06/17 08:13:05;;;;;;;6.45;4.95;;;;;;;;;;5070076;28;20229;-65
2023/06/17 08:15:32;;;;;;;5.85;4.90;;;;;;;;;;5072552;28;20266;-66
2023/06/17 08:18:00;;;;;;;5.40;4.90;;;;;;;;;;5075727;28;20264;-64
2023/06/17 08:20:28;;;;;;;5.55;5.03;;;;;;;;;;5068636;28;20198;-65
2023/06/17 08:22:55;;;;;;;6.18;5.03;;;;;;;;;;5069184;28;20240;-62
2023/06/17 08:25:23;;;;;;;10.13;7.15;;;;;;;;;;5078044;28;20206;-65
2023/06/17 08:27:50;;;;;;;10.73;7.45;;;;;;;;;;5081044;28;20229;-65
2023/06/17 08:30:18;;;;;;;7.90;6.25;;;;;;;;;;5083702;28;20205;-61
2023/06/17 08:32:46;;;;;;;7.40;5.00;;;;;;;;;;5080500;28;20221;-62
2023/06/17 08:35:14;;;;;;;7.63;5.22;;;;;;;;;;5086523;28;20200;-63
2023/06/17 08:37:41;;;;;;;10.55;5.50;;;;;;;;;;5080140;28;20211;-61
2023/06/17 08:40:09;;;;;;;6.63;4.75;;;;;;;;;;5088387;28;20247;-62
2023/06/17 08:42:37;;;;;;;6.63;5.43;;;;;;;;;;5085923;28;20221;-65
2023/06/17 08:45:05;;;;;;;6.85;5.70;;;;;;;;;;5064006;28;20649;-60
2023/06/17 08:47:34;;;;;;;6.43;5.22;;;;;;;;;;5061223;28;20679;-61
2023/06/17 08:50:02;;;;;;;7.95;5.15;;;;;;;;;;5062527;28;20661;-64
2023/06/17 08:52:32;;;;;;;5.70;5.20;;;;;;;;;;5036877;28;20233;-62
2023/06/17 08:55:00;;;;;;;8.90;5.07;;;;;;;;;;5064454;28;20192;-63
2023/06/17 08:57:28;;;;;;;6.63;4.90;;;;;;;;;;5065081;28;20209;-62
2023/06/17 08:59:56;;;;;;;6.30;4.70;;;;;;;;;;5059460;28;20210;-62
2023/06/17 09:02:24;;;;;;;9.57;4.40;;;;;;;;;;5053948;28;20217;-62
2023/06/17 09:04:52;;;;;;;6.18;4.63;;;;;;;;;;5053956;28;20200;-61
2023/06/17 09:07:20;;;;;;;6.82;4.70;;;;;;;;;;5048920;28;20225;-63
2023/06/17 09:09:56;;;;;;;4.30;3.90;;;;;;;;;;5053843;28;20907;-61
2023/06/17 09:12:25;;;;;;;6.55;4.32;;;;;;;;;;5053879;28;20233;-63
2023/06/17 09:14:54;;;;;;;4.72;4.25;;;;;;;;;;5054895;28;20197;-62
2023/06/17 09:17:32;;;;;;;5.13;3.75;;;;;;;;;;5067702;28;20205;-62
2023/06/17 09:20:10;;;;;;;4.85;3.50;;;;;;;;;;5063012;28;20794;-62
2023/06/17 09:22:41;;;;;;;4.25;3.63;;;;;;;;;;5061694;28;20508;-62
2023/06/17 09:25:11;;;;;;;4.82;4.25;;;;;;;;;;5067449;28;20213;-62
2023/06/17 09:27:45;;;;;;;6.25;3.88;;;;;;;;;;5067561;28;20221;-62
2023/06/17 09:30:36;;;;;;;3.95;3.45;;;;;;;;;;5060210;28;20201;-61
2023/06/17 09:33:04;;;;;;;5.18;3.40;;;;;;;;;;5058857;28;20221;-64
2023/06/17 09:35:33;;;;;;;4.05;3.63;;;;;;;;;;5067549;28;20210;-60
2023/06/17 09:38:04;;;;;;;4.18;3.22;;;;;;;;;;5058718;28;20715;-62
2023/06/17 09:40:33;;;;;;;5.60;3.42;;;;;;;;;;5047358;28;20214;-61
2023/06/17 09:43:02;;;;;;;3.67;3.38;;;;;;;;;;5057367;28;20433;-68
2023/06/17 09:45:54;;;;;;;4.43;3.60;;;;;;;;;;5053490;28;20756;-62
2023/06/17 09:48:24;;;;;;;5.82;3.90;;;;;;;;;;5060212;28;20217;-66
2023/06/17 09:50:56;;;;;;;4.88;3.95;;;;;;;;;;5056078;28;20940;-68
2023/06/17 09:53:33;;;;;;;4.28;3.72;;;;;;;;;;5051811;28;20218;-63
2023/06/17 09:56:04;;;;;;;5.88;3.70;;;;;;;;;;5066788;28;20909;-67
2023/06/17 09:58:32;;;;;;;4.65;3.65;;;;;;;;;;5065095;28;20221;-64
2023/06/17 10:01:04;;;;;;;4.57;3.60;;;;;;;;;;5060591;28;20211;-67
2023/06/17 10:03:37;;;;;;;4.82;4.30;;;;;;;;;;5065267;28;20703;-62
2023/06/17 10:06:13;;;;;;;4.28;3.80;;;;;;;;;;5059162;28;20672;-63
2023/06/17 10:08:41;;;;;;;4.57;3.92;;;;;;;;;;5053784;28;20213;-64
2023/06/17 10:11:10;;;;;;;5.28;4.10;;;;;;;;;;5052590;28;20206;-62
2023/06/17 10:13:39;;;;;;;4.53;4.10;;;;;;;;;;5049266;28;20226;-62
2023/06/17 10:16:08;;;;;;;4.05;3.75;;;;;;;;;;5055108;28;20786;-63
2023/06/17 10:18:38;;;;;;;3.67;3.38;;;;;;;;;;5052547;28;20197;-63
2023/06/17 10:21:08;;;;;;;4.88;4.32;;;;;;;;;;5052732;28;20268;-65
2023/06/17 10:23:36;;;;;;;4.90;3.92;;;;;;;;;;5043077;28;20238;-66
2023/06/17 10:26:12;;;;;;;4.10;3.80;;;;;;;;;;5055858;28;20232;-65
2023/06/17 10:28:57;;;;;;;4.18;3.78;;;;;;;;;;5047517;28;20247;-60
2023/06/17 10:31:25;;;;;;;4.72;4.32;;;;;;;;;;5048197;28;21208;-61
2023/06/17 10:33:54;;;;;;;4.35;4.00;;;;;;;;;;5034422;28;20696;-65
2023/06/17 10:36:23;;;;;;;4.82;4.40;;;;;;;;;;5057855;28;20221;-61
2023/06/17 10:38:58;;;;;;;5.20;4.70;;;;;;;;;;5056814;28;20217;-65
2023/06/17 10:41:44;;;;;;;6.28;5.68;;;;;;;;;;5061731;28;20204;-61
2023/06/17 10:44:21;;;;;;;5.03;4.50;;;;;;;;;;5044249;28;23457;-61
2023/06/17 10:46:51;;;;;;;11.73;7.22;;;;;;;;;;5061380;28;20291;-65
2023/06/17 10:49:19;;;;;;;5.75;4.60;;;;;;;;;;5055435;28;20235;-64
2023/06/17 10:51:48;;;;;;;5.55;4.22;;;;;;;;;;5057985;28;20245;-62
2023/06/17 10:54:28;;;;;;;5.30;4.80;;;;;;;;;;5049996;28;20491;-61
2023/06/17 10:56:55;;;;;;;6.05;5.00;;;;;;;;;;5059610;28;20202;-65
2023/06/17 10:59:30;;;;;;;7.03;4.80;;;;;;;;;;5057433;28;20194;-63
2023/06/17 11:02:06;;;;;;;5.28;4.57;;;;;;;;;;5060802;28;20591;-61
2023/06/17 11:04:42;;;;;;;6.97;5.57;;;;;;;;;;5069762;28;20299;-62
2023/06/17 11:07:10;;;;;;;6.15;4.72;;;;;;;;;;5072368;28;20200;-62
2023/06/17 11:09:37;;;;;;;14.80;10.13;;;;;;;;;;5058934;28;20225;-63
2023/06/17 11:12:06;;;;;;;5.63;5.00;;;;;;;;;;5060832;28;20310;-62
2023/06/17 11:14:34;;;;;;;5.47;4.63;;;;;;;;;;5063339;28;20618;-62
2023/06/17 11:17:01;;;;;;;7.55;4.78;;;;;;;;;;5056566;28;20198;-62
2023/06/17 11:19:29;;;;;;;6.10;4.45;;;;;;;;;;5061963;28;20209;-64
2023/06/17 11:22:01;;;;;;;5.15;4.75;;;;;;;;;;5058162;28;20217;-64
2023/06/17 11:24:29;;;;;;;5.15;4.57;;;;;;;;;;5068299;28;20215;-62
2023/06/17 11:26:58;;;;;;;4.80;4.30;;;;;;;;;;5064730;28;20277;-61
2023/06/17 11:29:26;;;;;;;5.78;4.35;;;;;;;;;;5062852;28;20226;-62
2023/06/17 11:32:00;;;;;;;7.15;4.53;;;;;;;;;;5055520;28;20221;-63
2023/06/17 11:34:31;;;;;;;5.40;4.35;;;;;;;;;;5063376;28;20217;-61
2023/06/17 11:37:00;;;;;;;6.15;4.60;;;;;;;;;;5055982;28;20284;-60
2023/06/17 11:39:28;;;;;;;5.18;4.68;;;;;;;;;;5070800;28;20288;-62
2023/06/17 11:42:03;;;;;;;5.57;5.00;;;;;;;;;;5060059;28;20221;-64
2023/06/17 11:44:33;;;;;;;7.07;4.57;;;;;;;;;;5065100;28;20576;-64
2023/06/17 11:47:05;;;;;;;6.28;4.63;;;;;;;;;;5063356;28;20666;-62
2023/06/17 11:49:33;;;;;;;5.03;4.53;;;;;;;;;;5057707;28;20303;-62
2023/06/17 11:52:02;;;;;;;6.00;4.68;;;;;;;;;;5068978;28;20267;-67
2023/06/17 11:54:29;;;;;;;6.95;6.25;;;;;;;;;;5071590;28;20201;-66
2023/06/17 11:56:57;;;;;;;4.90;4.43;;;;;;;;;;5068244;28;20243;-66
2023/06/17 11:59:24;;;;;;;5.32;4.57;;;;;;;;;;5062277;28;20206;-62
2023/06/17 12:01:52;;;;;;;5.13;4.72;;;;;;;;;;5061562;28;20256;-62
2023/06/17 12:04:19;;;;;;;4.45;4.05;;;;;;;;;;5055152;28;20212;-64
2023/06/17 12:06:47;;;;;;;4.55;4.15;;;;;;;;;;5057985;28;20225;-64
2023/06/17 12:09:15;;;;;;;4.93;4.45;;;;;;;;;;5072753;28;20229;-67
2023/06/17 12:11:43;;;;;;;4.95;4.50;;;;;;;;;;5064755;28;20286;-65
2023/06/17 12:14:11;;;;;;;5.05;4.28;;;;;;;;;;5054012;28;20267;-63
2023/06/17 12:16:41;;;;;;;5.10;4.60;;;;;;;;;;5053984;28;20202;-64
2023/06/17 12:19:14;;;;;;;5.20;4.70;;;;;;;;;;5056221;28;20488;-62
2023/06/17 12:21:41;;;;;;;5.18;4.68;;;;;;;;;;5047753;28;20225;-62
2023/06/17 12:24:08;;;;;;;7.05;4.63;;;;;;;;;;5054665;28;20225;-62
2023/06/17 12:26:36;;;;;;;7.30;5.00;;;;;;;;;;5048253;28;20603;-64
2023/06/17 12:29:03;;;;;;;5.82;4.70;;;;;;;;;;5061809;28;20268;-62
2023/06/17 12:31:46;;;;;;;5.28;4.78;;;;;;;;;;5050490;28;20231;-60
2023/06/17 12:34:13;;;;;;;5.35;4.85;;;;;;;;;;5060062;28;20202;-64
2023/06/17 12:36:40;;;;;;;6.70;4.82;;;;;;;;;;5041474;28;20216;-62
2023/06/17 12:39:08;;;;;;;5.15;4.75;;;;;;;;;;5055624;28;20207;-63
2023/06/17 12:41:35;;;;;;;7.15;4.57;;;;;;;;;;5045034;28;20234;-63
2023/06/17 12:44:03;;;;;;;5.85;4.90;;;;;;;;;;5051636;28;20278;-63
2023/06/17 12:46:33;;;;;;;6.03;4.93;;;;;;;;;;5066701;28;20218;-63
2023/06/17 12:49:00;;;;;;;8.77;4.85;;;;;;;;;;5060016;28;20592;-63
2023/06/17 12:51:27;;;;;;;6.13;4.70;;;;;;;;;;5067792;28;20193;-63
2023/06/17 12:53:55;;;;;;;5.13;4.50;;;;;;;;;;5064438;28;20201;-63
2023/06/17 12:56:22;;;;;;;5.63;4.75;;;;;;;;;;5053648;28;20258;-63
2023/06/17 12:58:49;;;;;;;5.10;4.70;;;;;;;;;;5058149;28;20704;-63
2023/06/17 13:01:17;;;;;;;4.97;4.57;;;;;;;;;;5058794;28;20201;-62
2023/06/17 13:03:44;;;;;;;6.88;4.53;;;;;;;;;;5058776;28;20202;-62
2023/06/17 13:06:12;;;;;;;4.53;4.13;;;;;;;;;;5066887;28;20209;-62
2023/06/17 13:08:39;;;;;;;4.80;4.40;;;;;;;;;;5044514;28;20263;-62
2023/06/17 13:11:07;;;;;;;8.38;7.43;;;;;;;;;;5064699;28;20201;-63
2023/06/17 13:13:34;;;;;;;5.43;4.93;;;;;;;;;;5059341;28;20343;-62
2023/06/17 13:16:02;;;;;;;5.40;4.68;;;;;;;;;;5040954;28;20206;-62
2023/06/17 13:18:29;;;;;;;5.30;4.80;;;;;;;;;;5065904;28;20205;-64
2023/06/17 13:20:56;;;;;;;5.13;4.63;;;;;;;;;;5056158;28;20210;-64
2023/06/17 13:23:24;;;;;;;4.80;4.40;;;;;;;;;;5060082;28;20232;-63
2023/06/17 13:25:51;;;;;;;8.18;4.88;;;;;;;;;;5055631;28;20202;-63
2023/06/17 13:28:20;;;;;;;5.18;4.40;;;;;;;;;;5057429;28;20315;-63
2023/06/17 13:30:49;;;;;;;6.63;4.82;;;;;;;;;;5056153;28;20190;-62
2023/06/17 13:33:17;;;;;;;7.00;4.80;;;;;;;;;;5053886;28;20722;-62
2023/06/17 13:35:44;;;;;;;5.28;4.65;;;;;;;;;;5060207;28;20205;-62
2023/06/17 13:38:11;;;;;;;5.05;4.65;;;;;;;;;;5050063;28;20214;-62
2023/06/17 13:40:39;;;;;;;5.10;4.60;;;;;;;;;;5053811;28;20742;-61
2023/06/17 13:43:07;;;;;;;5.38;4.43;;;;;;;;;;5049631;28;20229;-62
2023/06/17 13:45:34;;;;;;;4.93;4.47;;;;;;;;;;5056283;28;20197;-62
2023/06/17 13:48:01;;;;;;;9.43;7.38;;;;;;;;;;5033491;28;20248;-62
2023/06/17 13:50:30;;;;;;;5.50;4.95;;;;;;;;;;5055620;28;20201;-62
2023/06/17 13:52:58;;;;;;;6.15;4.10;;;;;;;;;;5061268;28;20221;-63
2023/06/17 13:55:26;;;;;;;4.88;4.10;;;;;;;;;;5055539;28;20206;-62
2023/06/17 13:57:53;;;;;;;5.35;4.38;;;;;;;;;;5040789;28;20049;-63
2023/06/17 14:00:21;;;;;;;4.75;4.07;;;;;;;;;;5058342;28;20946;-62
2023/06/17 14:02:49;;;;;;;4.40;4.00;;;;;;;;;;5045150;28;20732;-62
2023/06/17 14:05:17;;;;;;;4.15;3.75;;;;;;;;;;5052569;28;20861;-62
2023/06/17 14:07:45;;;;;;;6.45;4.25;;;;;;;;;;5052286;28;20222;-63
2023/06/17 14:10:15;;;;;;;4.55;3.97;;;;;;;;;;5049483;28;20647;-62
2023/06/17 14:12:43;;;;;;;5.40;4.13;;;;;;;;;;5054025;28;20230;-62
2023/06/17 14:15:10;;;;;;;4.47;4.07;;;;;;;;;;5059769;28;20201;-62
2023/06/17 14:17:38;;;;;;;4.85;4.13;;;;;;;;;;5055083;28;20299;-64
2023/06/17 14:20:05;;;;;;;4.22;3.92;;;;;;;;;;5052912;28;20205;-62
2023/06/17 14:22:33;;;;;;;4.32;3.92;;;;;;;;;;5062834;28;20237;-64
2023/06/17 14:25:00;;;;;;;4.70;4.22;;;;;;;;;;5049414;28;20221;-64
2023/06/17 14:27:45;;;;;;;4.30;4.00;;;;;;;;;;5056132;28;20202;-63
2023/06/17 14:30:13;;;;;;;4.35;3.80;;;;;;;;;;5048312;28;20225;-64
2023/06/17 14:32:42;;;;;;;4.80;4.03;;;;;;;;;;5056840;28;20240;-64
2023/06/17 14:35:10;;;;;;;4.05;3.70;;;;;;;;;;5054928;28;20214;-64
2023/06/17 14:37:38;;;;;;;4.30;4.00;;;;;;;;;;5059668;28;20205;-63
2023/06/17 14:40:06;;;;;;;4.68;4.00;;;;;;;;;;5053429;28;20742;-63
2023/06/17 14:42:33;;;;;;;4.20;3.80;;;;;;;;;;5053246;28;20226;-63
2023/06/17 14:45:01;;;;;;;4.18;3.55;;;;;;;;;;5055300;28;20201;-62
2023/06/17 14:47:29;;;;;;;4.72;3.50;;;;;;;;;;5040582;28;20290;-62
2023/06/17 14:49:57;;;;;;;4.03;3.72;;;;;;;;;;5057336;28;20215;-62
2023/06/17 14:52:24;;;;;;;4.13;3.83;;;;;;;;;;5058007;28;20275;-62